Terminal Aerodrome Forecast
Issued by NWS Buffalo, NY

Home | Current Version | Previous Version | Text Only | Print | Product List | Glossary On
Versions: 1 2 3 4 5 6 7 8 9 10 11 12 13 14 15 16 17 18 19 20 21 22 23 24 25 26 27 28 29 30 31 32
000
FTUS41 KBUF 281130
TAFBUF
TAF
KBUF 281130Z 2812/2912 12004KT P6SM BKN250
     FM281700 VRB03KT P6SM SCT050 BKN250
     FM282000 12005KT P6SM VCTS BKN050CB
     FM282300 16006KT 6SM -SHRA OVC050
     FM290400 19009KT 6SM -SHRA OVC050
     FM290900 22012KT P6SM VCSH OVC015=

USA.gov is the U.S. government's official web portal to all federal, state and local government web resources and services.